sensor_id;sensor_type;location;lat;lon;timestamp;pressure;altitude;pressure_sealevel;temperature;humidity
72612;BME280;60655;52.182;4.474;2023-11-19T00:01:28;100635.81;;;13.71;100.00
72612;BME280;60655;52.182;4.474;2023-11-19T00:03:29;100632.91;;;13.73;100.00
72612;BME280;60655;52.182;4.474;2023-11-19T00:05:30;100635.59;;;13.73;100.00
72612;BME280;60655;52.182;4.474;2023-11-19T00:07:31;100647.06;;;13.73;100.00
72612;BME280;60655;52.182;4.474;2023-11-19T00:09:32;100655.06;;;13.73;100.00
72612;BME280;60655;52.182;4.474;2023-11-19T00:11:33;100630.53;;;13.60;100.00
72612;BME280;60655;52.182;4.474;2023-11-19T00:13:34;100657.28;;;13.76;100.00
72612;BME280;60655;52.182;4.474;2023-11-19T00:15:35;100647.88;;;13.74;100.00
72612;BME280;60655;52.182;4.474;2023-11-19T00:17:40;100640.69;;;13.74;100.00
72612;BME280;60655;52.182;4.474;2023-11-19T00:19:45;100625.38;;;13.70;100.00
72612;BME280;60655;52.182;4.474;2023-11-19T00:21:47;100625.16;;;13.71;100.00
72612;BME280;60655;52.182;4.474;2023-11-19T00:23:48;100625.84;;;13.67;100.00
72612;BME280;60655;52.182;4.474;2023-11-19T00:25:49;100638.63;;;13.65;100.00
72612;BME280;60655;52.182;4.474;2023-11-19T00:27:50;100623.44;;;13.65;100.00
72612;BME280;60655;52.182;4.474;2023-11-19T00:29:52;100633.53;;;13.63;100.00
72612;BME280;60655;52.182;4.474;2023-11-19T00:31:53;100628.44;;;13.62;100.00
72612;BME280;60655;52.182;4.474;2023-11-19T00:33:54;100623.91;;;13.62;100.00
72612;BME280;60655;52.182;4.474;2023-11-19T00:35:55;100620.44;;;13.62;100.00
72612;BME280;60655;52.182;4.474;2023-11-19T00:37:56;100630.06;;;13.63;100.00
72612;BME280;60655;52.182;4.474;2023-11-19T00:39:58;100622.84;;;13.63;100.00
72612;BME280;60655;52.182;4.474;2023-11-19T00:41:59;100629.25;;;13.62;100.00
72612;BME280;60655;52.182;4.474;2023-11-19T00:44:00;100624.38;;;13.59;100.00
72612;BME280;60655;52.182;4.474;2023-11-19T00:46:01;100619.63;;;13.61;100.00
72612;BME280;60655;52.182;4.474;2023-11-19T00:48:02;100623.81;;;13.57;100.00
72612;BME280;60655;52.182;4.474;2023-11-19T00:50:03;100622.63;;;13.65;100.00
72612;BME280;60655;52.182;4.474;2023-11-19T00:52:04;100609.13;;;13.55;100.00
72612;BME280;60655;52.182;4.474;2023-11-19T00:54:05;100610.81;;;13.61;100.00
72612;BME280;60655;52.182;4.474;2023-11-19T00:56:06;100596.03;;;13.53;100.00
72612;BME280;60655;52.182;4.474;2023-11-19T00:58:07;100602.78;;;13.61;100.00
72612;BME280;60655;52.182;4.474;2023-11-19T01:00:09;100607.31;;;13.60;100.00
72612;BME280;60655;52.182;4.474;2023-11-19T01:02:19;100602.22;;;13.59;100.00
72612;BME280;60655;52.182;4.474;2023-11-19T01:04:19;100600.88;;;13.56;100.00
72612;BME280;60655;52.182;4.474;2023-11-19T01:06:30;100594.41;;;13.52;100.00
72612;BME280;60655;52.182;4.474;2023-11-19T01:08:31;100578.06;;;13.48;100.00
72612;BME280;60655;52.182;4.474;2023-11-19T01:10:32;100582.59;;;13.48;100.00
72612;BME280;60655;52.182;4.474;2023-11-19T01:12:33;100590.44;;;13.55;100.00
72612;BME280;60655;52.182;4.474;2023-11-19T01:14:34;100596.50;;;13.50;100.00
72612;BME280;60655;52.182;4.474;2023-11-19T01:16:35;100601.34;;;13.53;100.00
72612;BME280;60655;52.182;4.474;2023-11-19T01:18:36;100593.81;;;13.50;100.00
72612;BME280;60655;52.182;4.474;2023-11-19T01:20:36;100608.06;;;13.56;100.00
72612;BME280;60655;52.182;4.474;2023-11-19T01:22:37;100591.97;;;13.50;100.00
72612;BME280;60655;52.182;4.474;2023-11-19T01:24:38;100591.50;;;13.54;100.00
72612;BME280;60655;52.182;4.474;2023-11-19T01:26:40;100599.88;;;13.45;100.00
72612;BME280;60655;52.182;4.474;2023-11-19T01:28:45;100592.44;;;13.47;100.00
72612;BME280;60655;52.182;4.474;2023-11-19T01:30:50;100591.06;;;13.45;100.00
72612;BME280;60655;52.182;4.474;2023-11-19T01:32:51;100591.78;;;13.40;100.00
72612;BME280;60655;52.182;4.474;2023-11-19T01:34:52;100600.03;;;13.39;100.00
72612;BME280;60655;52.182;4.474;2023-11-19T01:36:53;100605.13;;;13.40;100.00
72612;BME280;60655;52.182;4.474;2023-11-19T01:38:54;100609.09;;;13.38;100.00
72612;BME280;60655;52.182;4.474;2023-11-19T01:40:57;100604.78;;;13.37;100.00
72612;BME280;60655;52.182;4.474;2023-11-19T01:42:58;100603.50;;;13.39;100.00
72612;BME280;60655;52.182;4.474;2023-11-19T01:45:00;100603.75;;;13.38;100.00
72612;BME280;60655;52.182;4.474;2023-11-19T01:47:02;100602.38;;;13.35;100.00
72612;BME280;60655;52.182;4.474;2023-11-19T01:49:03;100600.16;;;13.32;100.00
72612;BME280;60655;52.182;4.474;2023-11-19T01:51:06;100604.47;;;13.33;100.00
72612;BME280;60655;52.182;4.474;2023-11-19T01:53:07;100600.09;;;13.27;100.00
72612;BME280;60655;52.182;4.474;2023-11-19T01:55:09;100593.63;;;13.23;100.00
72612;BME280;60655;52.182;4.474;2023-11-19T01:57:11;100604.28;;;13.23;100.00
72612;BME280;60655;52.182;4.474;2023-11-19T01:59:13;100601.38;;;13.25;100.00
72612;BME280;60655;52.182;4.474;2023-11-19T02:01:15;100603.81;;;13.14;100.00
72612;BME280;60655;52.182;4.474;2023-11-19T02:03:16;100613.81;;;13.19;100.00
72612;BME280;60655;52.182;4.474;2023-11-19T02:05:17;100624.72;;;13.17;100.00
72612;BME280;60655;52.182;4.474;2023-11-19T02:07:18;100612.31;;;13.11;100.00
72612;BME280;60655;52.182;4.474;2023-11-19T02:09:19;100637.00;;;13.18;100.00
72612;BME280;60655;52.182;4.474;2023-11-19T02:11:20;100628.88;;;13.13;100.00
72612;BME280;60655;52.182;4.474;2023-11-19T02:13:21;100616.50;;;13.07;100.00
72612;BME280;60655;52.182;4.474;2023-11-19T02:15:22;100618.81;;;13.04;100.00
72612;BME280;60655;52.182;4.474;2023-11-19T02:17:29;100621.25;;;13.05;100.00
72612;BME280;60655;52.182;4.474;2023-11-19T02:19:32;100618.09;;;13.08;100.00
72612;BME280;60655;52.182;4.474;2023-11-19T02:21:33;100603.38;;;13.06;100.00
72612;BME280;60655;52.182;4.474;2023-11-19T02:23:34;100607.69;;;13.07;100.00
72612;BME280;60655;52.182;4.474;2023-11-19T02:25:35;100595.06;;;13.02;100.00
72612;BME280;60655;52.182;4.474;2023-11-19T02:27:51;100593.78;;;13.05;100.00
72612;BME280;60655;52.182;4.474;2023-11-19T02:29:56;100577.94;;;12.98;100.00
72612;BME280;60655;52.182;4.474;2023-11-19T02:31:58;100579.44;;;12.94;100.00
72612;BME280;60655;52.182;4.474;2023-11-19T02:33:59;100597.66;;;12.97;100.00
72612;BME280;60655;52.182;4.474;2023-11-19T02:36:07;100590.94;;;12.95;100.00
72612;BME280;60655;52.182;4.474;2023-11-19T02:38:08;100591.75;;;12.95;100.00
72612;BME280;60655;52.182;4.474;2023-11-19T02:40:09;100606.13;;;12.94;100.00
72612;BME280;60655;52.182;4.474;2023-11-19T02:42:11;100598.13;;;12.94;100.00
72612;BME280;60655;52.182;4.474;2023-11-19T02:44:12;100601.50;;;12.90;100.00
72612;BME280;60655;52.182;4.474;2023-11-19T02:46:14;100597.19;;;12.89;100.00
72612;BME280;60655;52.182;4.474;2023-11-19T02:48:15;100602.63;;;12.94;100.00
72612;BME280;60655;52.182;4.474;2023-11-19T02:50:17;100569.09;;;12.69;100.00
72612;BME280;60655;52.182;4.474;2023-11-19T02:52:25;100587.72;;;12.81;100.00
72612;BME280;60655;52.182;4.474;2023-11-19T02:54:26;100592.25;;;12.80;100.00
72612;BME280;60655;52.182;4.474;2023-11-19T02:56:28;100598.59;;;12.79;100.00
72612;BME280;60655;52.182;4.474;2023-11-19T02:58:30;100608.56;;;12.84;100.00
72612;BME280;60655;52.182;4.474;2023-11-19T03:00:31;100607.66;;;12.78;100.00
72612;BME280;60655;52.182;4.474;2023-11-19T03:02:36;100610.56;;;12.77;100.00
72612;BME280;60655;52.182;4.474;2023-11-19T03:04:44;100592.59;;;12.72;100.00
72612;BME280;60655;52.182;4.474;2023-11-19T03:06:46;100605.81;;;12.79;100.00
72612;BME280;60655;52.182;4.474;2023-11-19T03:08:48;100596.53;;;12.81;100.00
72612;BME280;60655;52.182;4.474;2023-11-19T03:10:49;100597.09;;;12.83;100.00
72612;BME280;60655;52.182;4.474;2023-11-19T03:12:50;100597.34;;;12.82;100.00
72612;BME280;60655;52.182;4.474;2023-11-19T03:14:51;100595.47;;;12.82;100.00
72612;BME280;60655;52.182;4.474;2023-11-19T03:16:53;100589.81;;;12.79;100.00
72612;BME280;60655;52.182;4.474;2023-11-19T03:18:54;100579.94;;;12.79;100.00
72612;BME280;60655;52.182;4.474;2023-11-19T03:20:55;100585.28;;;12.79;100.00
72612;BME280;60655;52.182;4.474;2023-11-19T03:22:56;100565.13;;;12.72;100.00
72612;BME280;60655;52.182;4.474;2023-11-19T03:24:58;100572.19;;;12.78;100.00
72612;BME280;60655;52.182;4.474;2023-11-19T03:26:59;100569.19;;;12.74;100.00
72612;BME280;60655;52.182;4.474;2023-11-19T03:29:00;100578.47;;;12.72;100.00
72612;BME280;60655;52.182;4.474;2023-11-19T03:31:04;100564.13;;;12.61;100.00
72612;BME280;60655;52.182;4.474;2023-11-19T03:33:07;100570.38;;;12.67;100.00
72612;BME280;60655;52.182;4.474;2023-11-19T03:35:08;100571.66;;;12.64;100.00
72612;BME280;60655;52.182;4.474;2023-11-19T03:37:09;100589.84;;;12.67;100.00
72612;BME280;60655;52.182;4.474;2023-11-19T03:39:10;100595.75;;;12.69;100.00
72612;BME280;60655;52.182;4.474;2023-11-19T03:41:12;100589.75;;;12.62;100.00
72612;BME280;60655;52.182;4.474;2023-11-19T03:43:13;100587.09;;;12.62;100.00
72612;BME280;60655;52.182;4.474;2023-11-19T03:45:14;100594.84;;;12.64;100.00
72612;BME280;60655;52.182;4.474;2023-11-19T03:47:16;100605.84;;;12.67;100.00
72612;BME280;60655;52.182;4.474;2023-11-19T03:49:17;100601.56;;;12.66;100.00
72612;BME280;60655;52.182;4.474;2023-11-19T03:51:18;100596.69;;;12.63;100.00
72612;BME280;60655;52.182;4.474;2023-11-19T03:53:19;100599.34;;;12.63;100.00
72612;BME280;60655;52.182;4.474;2023-11-19T03:55:20;100587.53;;;12.59;100.00
72612;BME280;60655;52.182;4.474;2023-11-19T03:57:21;100589.63;;;12.57;100.00
72612;BME280;60655;52.182;4.474;2023-11-19T03:59:22;100596.00;;;12.56;100.00
72612;BME280;60655;52.182;4.474;2023-11-19T04:01:23;100605.84;;;12.56;100.00
72612;BME280;60655;52.182;4.474;2023-11-19T04:03:24;100602.63;;;12.54;100.00
72612;BME280;60655;52.182;4.474;2023-11-19T04:05:25;100601.47;;;12.49;100.00
72612;BME280;60655;52.182;4.474;2023-11-19T04:07:25;100604.22;;;12.55;100.00
72612;BME280;60655;52.182;4.474;2023-11-19T04:09:26;100607.84;;;12.48;100.00
72612;BME280;60655;52.182;4.474;2023-11-19T04:11:27;100627.41;;;12.54;100.00
72612;BME280;60655;52.182;4.474;2023-11-19T04:13:28;100614.53;;;12.51;100.00
72612;BME280;60655;52.182;4.474;2023-11-19T04:15:29;100617.78;;;12.53;100.00
72612;BME280;60655;52.182;4.474;2023-11-19T04:17:30;100611.19;;;12.56;100.00
72612;BME280;60655;52.182;4.474;2023-11-19T04:19:31;100596.59;;;12.46;100.00
72612;BME280;60655;52.182;4.474;2023-11-19T04:21:33;100611.06;;;12.50;100.00
72612;BME280;60655;52.182;4.474;2023-11-19T04:23:34;100596.94;;;12.50;100.00
72612;BME280;60655;52.182;4.474;2023-11-19T04:25:35;100609.56;;;12.55;100.00
72612;BME280;60655;52.182;4.474;2023-11-19T04:27:36;100598.09;;;12.54;100.00
72612;BME280;60655;52.182;4.474;2023-11-19T04:29:37;100607.94;;;12.54;100.00
72612;BME280;60655;52.182;4.474;2023-11-19T04:31:38;100594.38;;;12.55;100.00
72612;BME280;60655;52.182;4.474;2023-11-19T04:33:40;100606.31;;;12.52;100.00
72612;BME280;60655;52.182;4.474;2023-11-19T04:35:41;100606.78;;;12.49;100.00
72612;BME280;60655;52.182;4.474;2023-11-19T04:37:42;100598.91;;;12.55;100.00
72612;BME280;60655;52.182;4.474;2023-11-19T04:39:46;100595.78;;;12.46;100.00
72612;BME280;60655;52.182;4.474;2023-11-19T04:41:50;100601.81;;;12.53;100.00
72612;BME280;60655;52.182;4.474;2023-11-19T04:43:54;100602.72;;;12.47;100.00
72612;BME280;60655;52.182;4.474;2023-11-19T04:45:55;100601.81;;;12.53;100.00
72612;BME280;60655;52.182;4.474;2023-11-19T04:47:56;100599.38;;;12.51;100.00
72612;BME280;60655;52.182;4.474;2023-11-19T04:49:57;100606.09;;;12.54;100.00
72612;BME280;60655;52.182;4.474;2023-11-19T04:51:58;100620.22;;;12.55;100.00
72612;BME280;60655;52.182;4.474;2023-11-19T04:53:59;100612.69;;;12.51;100.00
72612;BME280;60655;52.182;4.474;2023-11-19T04:56:00;100615.47;;;12.45;100.00
72612;BME280;60655;52.182;4.474;2023-11-19T04:58:01;100612.81;;;12.45;100.00
72612;BME280;60655;52.182;4.474;2023-11-19T05:00:03;100610.03;;;12.51;100.00
72612;BME280;60655;52.182;4.474;2023-11-19T05:02:05;100611.31;;;12.49;100.00
72612;BME280;60655;52.182;4.474;2023-11-19T05:04:07;100611.41;;;12.54;100.00
72612;BME280;60655;52.182;4.474;2023-11-19T05:06:08;100611.41;;;12.54;100.00
72612;BME280;60655;52.182;4.474;2023-11-19T05:08:09;100624.41;;;12.50;100.00
72612;BME280;60655;52.182;4.474;2023-11-19T05:10:10;100615.34;;;12.51;100.00
72612;BME280;60655;52.182;4.474;2023-11-19T05:12:11;100619.88;;;12.51;100.00
72612;BME280;60655;52.182;4.474;2023-11-19T05:14:13;100625.31;;;12.44;100.00
72612;BME280;60655;52.182;4.474;2023-11-19T05:16:14;100627.19;;;12.44;100.00
72612;BME280;60655;52.182;4.474;2023-11-19T05:18:15;100629.84;;;12.44;100.00
72612;BME280;60655;52.182;4.474;2023-11-19T05:20:16;100633.66;;;12.48;100.00
72612;BME280;60655;52.182;4.474;2023-11-19T05:22:17;100634.72;;;12.47;100.00
72612;BME280;60655;52.182;4.474;2023-11-19T05:24:18;100629.59;;;12.45;100.00
72612;BME280;60655;52.182;4.474;2023-11-19T05:26:20;100632.84;;;12.47;100.00
72612;BME280;60655;52.182;4.474;2023-11-19T05:28:21;100626.72;;;12.47;100.00
72612;BME280;60655;52.182;4.474;2023-11-19T05:30:25;100612.72;;;12.40;100.00
72612;BME280;60655;52.182;4.474;2023-11-19T05:32:26;100613.84;;;12.44;100.00
72612;BME280;60655;52.182;4.474;2023-11-19T05:34:27;100625.91;;;12.46;100.00
72612;BME280;60655;52.182;4.474;2023-11-19T05:36:28;100632.19;;;12.40;100.00
72612;BME280;60655;52.182;4.474;2023-11-19T05:38:29;100627.09;;;12.39;100.00
72612;BME280;60655;52.182;4.474;2023-11-19T05:40:30;100622.88;;;12.43;100.00
72612;BME280;60655;52.182;4.474;2023-11-19T05:42:31;100630.34;;;12.41;100.00
72612;BME280;60655;52.182;4.474;2023-11-19T05:44:32;100633.81;;;12.41;100.00
72612;BME280;60655;52.182;4.474;2023-11-19T05:46:33;100630.66;;;12.44;100.00
72612;BME280;60655;52.182;4.474;2023-11-19T05:48:34;100642.03;;;12.40;100.00
72612;BME280;60655;52.182;4.474;2023-11-19T05:50:35;100620.03;;;12.33;100.00
72612;BME280;60655;52.182;4.474;2023-11-19T05:52:36;100626.28;;;12.38;100.00
72612;BME280;60655;52.182;4.474;2023-11-19T05:54:37;100620.03;;;12.33;100.00
72612;BME280;60655;52.182;4.474;2023-11-19T05:56:38;100626.84;;;12.29;100.00
72612;BME280;60655;52.182;4.474;2023-11-19T05:58:39;100621.41;;;12.35;100.00
72612;BME280;60655;52.182;4.474;2023-11-19T06:00:41;100619.66;;;12.29;100.00
72612;BME280;60655;52.182;4.474;2023-11-19T06:02:42;100617.00;;;12.29;100.00
72612;BME280;60655;52.182;4.474;2023-11-19T06:04:43;100613.75;;;12.27;100.00
72612;BME280;60655;52.182;4.474;2023-11-19T06:06:45;100638.66;;;12.33;100.00
72612;BME280;60655;52.182;4.474;2023-11-19T06:08:46;100620.59;;;12.35;100.00
72612;BME280;60655;52.182;4.474;2023-11-19T06:10:48;100627.09;;;12.39;100.00
72612;BME280;60655;52.182;4.474;2023-11-19T06:12:51;100625.69;;;12.36;100.00
72612;BME280;60655;52.182;4.474;2023-11-19T06:14:56;100645.72;;;12.39;100.00
72612;BME280;60655;52.182;4.474;2023-11-19T06:16:57;100624.66;;;12.37;100.00
72612;BME280;60655;52.182;4.474;2023-11-19T06:18:58;100628.47;;;12.41;100.00
72612;BME280;60655;52.182;4.474;2023-11-19T06:20:59;100626.59;;;12.42;100.00
72612;BME280;60655;52.182;4.474;2023-11-19T06:23:00;100634.25;;;12.50;100.00
72612;BME280;60655;52.182;4.474;2023-11-19T06:25:01;100626.47;;;12.48;100.00
72612;BME280;60655;52.182;4.474;2023-11-19T06:27:07;100636.91;;;12.50;100.00
72612;BME280;60655;52.182;4.474;2023-11-19T06:29:08;100627.41;;;12.42;100.00
72612;BME280;60655;52.182;4.474;2023-11-19T06:31:09;100632.03;;;12.47;100.00
72612;BME280;60655;52.182;4.474;2023-11-19T06:33:13;100635.66;;;12.41;100.00
72612;BME280;60655;52.182;4.474;2023-11-19T06:35:13;100645.00;;;12.43;100.00
72612;BME280;60655;52.182;4.474;2023-11-19T06:37:14;100636.94;;;12.38;100.00
72612;BME280;60655;52.182;4.474;2023-11-19T06:39:15;100643.66;;;12.41;100.00
72612;BME280;60655;52.182;4.474;2023-11-19T06:41:16;100633.66;;;12.48;100.00
72612;BME280;60655;52.182;4.474;2023-11-19T06:43:17;100631.16;;;12.41;100.00
72612;BME280;60655;52.182;4.474;2023-11-19T06:45:18;100630.34;;;12.41;100.00
72612;BME280;60655;52.182;4.474;2023-11-19T06:47:19;100645.94;;;12.49;100.00
72612;BME280;60655;52.182;4.474;2023-11-19T06:49:20;100643.84;;;12.51;100.00
72612;BME280;60655;52.182;4.474;2023-11-19T06:51:21;100647.34;;;12.51;100.00
72612;BME280;60655;52.182;4.474;2023-11-19T06:53:22;100650.34;;;12.55;100.00
72612;BME280;60655;52.182;4.474;2023-11-19T06:55:23;100651.16;;;12.56;100.00
72612;BME280;60655;52.182;4.474;2023-11-19T06:57:24;100647.78;;;12.60;100.00
72612;BME280;60655;52.182;4.474;2023-11-19T06:59:25;100633.31;;;12.56;100.00
72612;BME280;60655;52.182;4.474;2023-11-19T07:01:26;100659.38;;;12.66;100.00
72612;BME280;60655;52.182;4.474;2023-11-19T07:03:27;100652.44;;;12.65;100.00
72612;BME280;60655;52.182;4.474;2023-11-19T07:05:28;100647.78;;;12.60;100.00
72612;BME280;60655;52.182;4.474;2023-11-19T07:07:31;100649.53;;;12.66;100.00
72612;BME280;60655;52.182;4.474;2023-11-19T07:09:33;100659.22;;;12.72;100.00
72612;BME280;60655;52.182;4.474;2023-11-19T07:11:38;100651.84;;;12.63;100.00
72612;BME280;60655;52.182;4.474;2023-11-19T07:13:39;100655.22;;;12.70;99.91
72612;BME280;60655;52.182;4.474;2023-11-19T07:15:40;100652.19;;;12.66;99.50
72612;BME280;60655;52.182;4.474;2023-11-19T07:17:41;100655.44;;;12.68;99.57
72612;BME280;60655;52.182;4.474;2023-11-19T07:19:42;100652.44;;;12.65;99.45
72612;BME280;60655;52.182;4.474;2023-11-19T07:21:43;100652.19;;;12.66;98.99
72612;BME280;60655;52.182;4.474;2023-11-19T07:23:45;100662.63;;;12.68;99.05
72612;BME280;60655;52.182;4.474;2023-11-19T07:25:47;100656.47;;;12.67;99.23
72612;BME280;60655;52.182;4.474;2023-11-19T07:27:48;100637.84;;;12.56;99.48
72612;BME280;60655;52.182;4.474;2023-11-19T07:29:49;100645.59;;;12.57;100.00
72612;BME280;60655;52.182;4.474;2023-11-19T07:31:50;100648.03;;;12.59;99.91
72612;BME280;60655;52.182;4.474;2023-11-19T07:33:51;100655.78;;;12.60;100.00
72612;BME280;60655;52.182;4.474;2023-11-19T07:35:52;100656.47;;;12.56;100.00
72612;BME280;60655;52.182;4.474;2023-11-19T07:37:53;100658.91;;;12.57;100.00
72612;BME280;60655;52.182;4.474;2023-11-19T07:39:54;100655.78;;;12.60;100.00
72612;BME280;60655;52.182;4.474;2023-11-19T07:41:55;100669.47;;;12.64;100.00
72612;BME280;60655;52.182;4.474;2023-11-19T07:43:56;100646.19;;;12.59;100.00
72612;BME280;60655;52.182;4.474;2023-11-19T07:45:57;100656.25;;;12.69;100.00
72612;BME280;60655;52.182;4.474;2023-11-19T07:47:59;100655.66;;;12.67;99.40
72612;BME280;60655;52.182;4.474;2023-11-19T07:50:02;100658.53;;;12.77;98.80
72612;BME280;60655;52.182;4.474;2023-11-19T07:52:04;100663.63;;;12.78;98.96
72612;BME280;60655;52.182;4.474;2023-11-19T07:54:05;100657.38;;;12.84;99.12
72612;BME280;60655;52.182;4.474;2023-11-19T07:56:07;100652.03;;;12.84;99.11
72612;BME280;60655;52.182;4.474;2023-11-19T07:58:08;100652.84;;;12.85;98.39
72612;BME280;60655;52.182;4.474;2023-11-19T08:00:09;100657.38;;;12.84;98.40
72612;BME280;60655;52.182;4.474;2023-11-19T08:02:13;100670.81;;;12.90;98.44
72612;BME280;60655;52.182;4.474;2023-11-19T08:04:15;100662.81;;;12.90;98.54
72612;BME280;60655;52.182;4.474;2023-11-19T08:06:16;100663.84;;;12.89;98.28
72612;BME280;60655;52.182;4.474;2023-11-19T08:08:17;100670.00;;;12.89;98.55
72612;BME280;60655;52.182;4.474;2023-11-19T08:10:18;100661.19;;;12.77;98.46
72612;BME280;60655;52.182;4.474;2023-11-19T08:12:19;100667.56;;;12.76;99.04
72612;BME280;60655;52.182;4.474;2023-11-19T08:14:20;100662.81;;;12.78;98.47
72612;BME280;60655;52.182;4.474;2023-11-19T08:16:21;100669.31;;;12.82;98.53
72612;BME280;60655;52.182;4.474;2023-11-19T08:18:22;100658.66;;;12.82;98.66
72612;BME280;60655;52.182;4.474;2023-11-19T08:20:23;100656.91;;;12.88;98.09
72612;BME280;60655;52.182;4.474;2023-11-19T08:22:24;100655.38;;;12.92;97.94
72612;BME280;60655;52.182;4.474;2023-11-19T08:24:25;100657.00;;;12.93;97.82
72612;BME280;60655;52.182;4.474;2023-11-19T08:26:26;100653.88;;;12.96;98.26
72612;BME280;60655;52.182;4.474;2023-11-19T08:28:27;100659.22;;;12.96;98.79
72612;BME280;60655;52.182;4.474;2023-11-19T08:30:28;100655.38;;;12.92;98.70
72612;BME280;60655;52.182;4.474;2023-11-19T08:32:29;100654.34;;;12.93;99.34
72612;BME280;60655;52.182;4.474;2023-11-19T08:34:30;100660.81;;;12.97;99.30
72612;BME280;60655;52.182;4.474;2023-11-19T08:36:31;100648.19;;;12.92;98.92
72612;BME280;60655;52.182;4.474;2023-11-19T08:38:32;100660.09;;;13.01;98.64
72612;BME280;60655;52.182;4.474;2023-11-19T08:40:33;100667.41;;;13.06;97.96
72612;BME280;60655;52.182;4.474;2023-11-19T08:42:34;100669.25;;;13.05;98.07
72612;BME280;60655;52.182;4.474;2023-11-19T08:44:35;100663.91;;;13.05;97.89
72612;BME280;60655;52.182;4.474;2023-11-19T08:46:35;100676.06;;;13.13;98.02
72612;BME280;60655;52.182;4.474;2023-11-19T08:48:37;100672.50;;;13.07;97.75
72612;BME280;60655;52.182;4.474;2023-11-19T08:50:38;100665.06;;;13.09;97.90
72612;BME280;60655;52.182;4.474;2023-11-19T08:52:39;100668.66;;;13.15;98.42
72612;BME280;60655;52.182;4.474;2023-11-19T08:54:43;100674.47;;;13.24;98.69
72612;BME280;60655;52.182;4.474;2023-11-19T08:56:44;100655.78;;;13.24;98.49
72612;BME280;60655;52.182;4.474;2023-11-19T08:58:45;100667.28;;;13.24;97.77
72612;BME280;60655;52.182;4.474;2023-11-19T09:00:46;100665.06;;;13.21;99.06
72612;BME280;60655;52.182;4.474;2023-11-19T09:02:47;100664.03;;;13.22;98.45
72612;BME280;60655;52.182;4.474;2023-11-19T09:04:47;100652.66;;;13.15;97.89
72612;BME280;60655;52.182;4.474;2023-11-19T09:06:49;100664.03;;;13.22;97.62
72612;BME280;60655;52.182;4.474;2023-11-19T09:08:49;100658.22;;;13.25;97.12
72612;BME280;60655;52.182;4.474;2023-11-19T09:10:50;100668.31;;;13.23;97.33
72612;BME280;60655;52.182;4.474;2023-11-19T09:12:52;100654.00;;;13.29;97.58
72612;BME280;60655;52.182;4.474;2023-11-19T09:14:53;100659.03;;;13.26;97.49
72612;BME280;60655;52.182;4.474;2023-11-19T09:16:54;100650.69;;;13.22;97.21
72612;BME280;60655;52.182;4.474;2023-11-19T09:18:56;100646.97;;;13.23;96.95
72612;BME280;60655;52.182;4.474;2023-11-19T09:20:58;100650.84;;;13.32;97.66
72612;BME280;60655;52.182;4.474;2023-11-19T09:22:59;100642.72;;;13.39;97.42
72612;BME280;60655;52.182;4.474;2023-11-19T09:25:00;100637.03;;;13.35;97.10
72612;BME280;60655;52.182;4.474;2023-11-19T09:27:01;100654.19;;;13.39;96.39
72612;BME280;60655;52.182;4.474;2023-11-19T09:29:02;100640.28;;;13.37;97.04
72612;BME280;60655;52.182;4.474;2023-11-19T09:31:03;100653.88;;;13.36;96.94
72612;BME280;60655;52.182;4.474;2023-11-19T09:33:13;100646.91;;;13.35;96.83
72612;BME280;60655;52.182;4.474;2023-11-19T09:35:14;100641.25;;;13.31;97.34
72612;BME280;60655;52.182;4.474;2023-11-19T09:37:16;100650.63;;;13.34;96.53
72612;BME280;60655;52.182;4.474;2023-11-19T09:39:17;100664.75;;;13.46;96.65
72612;BME280;60655;52.182;4.474;2023-11-19T09:41:19;100652.06;;;13.53;95.92
72612;BME280;60655;52.182;4.474;2023-11-19T09:43:20;100652.41;;;13.57;96.08
72612;BME280;60655;52.182;4.474;2023-11-19T09:45:21;100664.94;;;13.56;94.90
72612;BME280;60655;52.182;4.474;2023-11-19T09:47:22;100663.06;;;13.57;94.95
72612;BME280;60655;52.182;4.474;2023-11-19T09:49:26;100655.53;;;13.54;95.25
72612;BME280;60655;52.182;4.474;2023-11-19T09:51:27;100650.84;;;13.61;94.95
72612;BME280;60655;52.182;4.474;2023-11-19T09:53:28;100663.31;;;13.72;93.90
72612;BME280;60655;52.182;4.474;2023-11-19T09:55:29;100649.91;;;13.83;93.26
72612;BME280;60655;52.182;4.474;2023-11-19T09:57:32;100666.34;;;13.92;91.05
72612;BME280;60655;52.182;4.474;2023-11-19T09:59:36;100661.06;;;13.80;91.04
72612;BME280;60655;52.182;4.474;2023-11-19T10:01:38;100687.34;;;13.72;93.62
72612;BME280;60655;52.182;4.474;2023-11-19T10:03:39;100669.59;;;13.49;96.86
72612;BME280;60655;52.182;4.474;2023-11-19T10:05:41;100670.28;;;13.28;99.90
72612;BME280;60655;52.182;4.474;2023-11-19T10:07:42;100659.97;;;13.20;100.00
72612;BME280;60655;52.182;4.474;2023-11-19T10:09:46;100663.31;;;13.15;100.00
72612;BME280;60655;52.182;4.474;2023-11-19T10:11:49;100659.16;;;13.19;100.00
72612;BME280;60655;52.182;4.474;2023-11-19T10:13:52;100636.38;;;13.28;99.89
72612;BME280;60655;52.182;4.474;2023-11-19T10:15:55;100655.34;;;13.43;98.29
72612;BME280;60655;52.182;4.474;2023-11-19T10:17:57;100633.19;;;13.43;95.89
72612;BME280;60655;52.182;4.474;2023-11-19T10:19:58;100649.63;;;13.51;95.80
72612;BME280;60655;52.182;4.474;2023-11-19T10:22:04;100622.38;;;13.49;95.43
72612;BME280;60655;52.182;4.474;2023-11-19T10:24:05;100638.41;;;13.66;94.64
72612;BME280;60655;52.182;4.474;2023-11-19T10:26:06;100652.41;;;13.73;94.27
72612;BME280;60655;52.182;4.474;2023-11-19T10:28:07;100647.56;;;13.87;93.89
72612;BME280;60655;52.182;4.474;2023-11-19T10:30:09;100640.19;;;13.94;92.84